Time;durP1;ratioP1;P1;durP2;ratioP2;P2;SDS_P1;SDS_P2;PMS_P1;PMS_P2;Temp;Humidity;BMP_temperature;BMP_pressure;BME280_temperature;BME280_humidity;BME280_pressure;Samples;Min_cycle;Max_cycle;Signal;HPM_P1;HPM_P2
2023/03/19 00:00:12;;;;;;;1.88;1.35;;;;;17.50;100874.00;;;;5080952;28;20199;-73
2023/03/19 00:02:40;;;;;;;1.88;1.45;;;;;17.50;100879.00;;;;5084886;28;20194;-73
2023/03/19 00:05:09;;;;;;;1.75;1.10;;;;;17.50;100879.00;;;;5087282;28;20210;-74
2023/03/19 00:07:36;;;;;;;1.88;1.45;;;;;17.50;100868.00;;;;5086202;28;20253;-74
2023/03/19 00:10:03;;;;;;;2.10;1.30;;;;;17.50;100873.00;;;;5087750;28;20581;-74
2023/03/19 00:12:31;;;;;;;2.85;1.52;;;;;17.50;100877.00;;;;5083976;28;20226;-74
2023/03/19 00:14:58;;;;;;;1.17;1.05;;;;;17.50;100876.00;;;;5086786;28;20198;-74
2023/03/19 00:17:25;;;;;;;1.77;1.08;;;;;17.50;100875.00;;;;5082342;28;20750;-73
2023/03/19 00:19:53;;;;;;;2.65;1.70;;;;;17.50;100878.00;;;;5085910;28;20214;-74
2023/03/19 00:22:21;;;;;;;1.90;1.40;;;;;17.50;100884.00;;;;5088283;28;20197;-73
2023/03/19 00:24:48;;;;;;;3.17;1.27;;;;;17.50;100886.00;;;;5085383;28;20202;-74
2023/03/19 00:27:16;;;;;;;1.48;1.08;;;;;17.50;100893.00;;;;5087013;28;20191;-74
2023/03/19 00:29:43;;;;;;;3.38;1.10;;;;;17.40;100892.00;;;;5086242;28;20241;-74
2023/03/19 00:32:10;;;;;;;2.25;1.10;;;;;17.40;100896.00;;;;5086632;28;20229;-73
2023/03/19 00:34:38;;;;;;;2.17;1.27;;;;;17.40;100890.00;;;;5079143;28;20202;-73
2023/03/19 00:37:06;;;;;;;1.55;1.20;;;;;17.40;100896.00;;;;5087695;28;20194;-73
2023/03/19 00:39:35;;;;;;;1.92;1.05;;;;;17.40;100888.00;;;;5090265;28;20278;-74
2023/03/19 00:42:02;;;;;;;2.17;0.93;;;;;17.40;100894.00;;;;5088068;28;20281;-74
2023/03/19 00:44:30;;;;;;;2.28;1.25;;;;;17.40;100887.00;;;;5076171;28;20199;-74
2023/03/19 00:46:57;;;;;;;1.38;1.27;;;;;17.30;100893.00;;;;5070855;28;20711;-73
2023/03/19 00:49:24;;;;;;;1.80;1.42;;;;;17.30;100883.00;;;;5091341;28;20213;-73
2023/03/19 00:51:52;;;;;;;1.50;1.30;;;;;17.30;100874.00;;;;5078785;28;20202;-73
2023/03/19 00:54:19;;;;;;;1.65;1.52;;;;;17.30;100884.00;;;;5086955;28;20204;-73
2023/03/19 00:56:48;;;;;;;1.70;1.50;;;;;17.20;100879.00;;;;5089969;28;20275;-74
2023/03/19 00:59:15;;;;;;;1.50;1.33;;;;;17.20;100886.00;;;;5089326;28;20213;-73
2023/03/19 01:01:42;;;;;;;2.00;1.20;;;;;17.20;100891.00;;;;5091595;28;20190;-74
2023/03/19 01:04:11;;;;;;;1.30;1.10;;;;;17.10;100894.00;;;;5089616;28;20206;-73
2023/03/19 01:06:39;;;;;;;1.67;1.58;;;;;17.10;100896.00;;;;5089817;28;20653;-73
2023/03/19 01:09:06;;;;;;;1.73;1.50;;;;;17.10;100892.00;;;;5088051;28;20218;-73
2023/03/19 01:11:33;;;;;;;1.73;1.25;;;;;17.00;100893.00;;;;5090278;28;20206;-73
2023/03/19 01:14:02;;;;;;;2.05;1.55;;;;;17.00;100899.00;;;;5088114;28;20238;-73
2023/03/19 01:16:30;;;;;;;2.13;1.15;;;;;17.00;100891.00;;;;5089110;28;20414;-73
2023/03/19 01:18:57;;;;;;;2.40;1.77;;;;;16.90;100893.00;;;;5090432;28;20557;-73
2023/03/19 01:21:24;;;;;;;2.15;1.35;;;;;16.90;100891.00;;;;5088971;28;20640;-73
2023/03/19 01:23:52;;;;;;;1.50;1.30;;;;;16.90;100890.00;;;;5089123;28;20286;-73
2023/03/19 01:26:19;;;;;;;2.47;1.55;;;;;16.90;100882.00;;;;5084493;28;20194;-74
2023/03/19 01:28:46;;;;;;;1.80;1.38;;;;;16.80;100884.00;;;;5088303;28;20272;-73
2023/03/19 01:31:15;;;;;;;1.88;1.40;;;;;16.80;100891.00;;;;5090236;28;20241;-73
2023/03/19 01:33:42;;;;;;;3.20;1.52;;;;;16.80;100894.00;;;;5090226;28;20784;-73
2023/03/19 01:36:11;;;;;;;1.77;1.52;;;;;16.80;100890.00;;;;5087183;28;20739;-73
2023/03/19 01:38:38;;;;;;;1.95;1.30;;;;;16.80;100896.00;;;;5089525;28;20234;-73
2023/03/19 01:41:06;;;;;;;1.83;1.30;;;;;16.70;100886.00;;;;5080151;28;20195;-73
2023/03/19 01:43:33;;;;;;;1.50;1.40;;;;;16.80;100889.00;;;;5085251;28;20209;-73
2023/03/19 01:46:06;;;;;;;1.63;1.30;;;;;16.70;100888.00;;;;5089639;28;20232;-73
2023/03/19 01:48:40;;;;;;;1.83;1.20;;;;;16.70;100888.00;;;;5089230;28;20209;-73
2023/03/19 01:51:09;;;;;;;2.00;1.52;;;;;16.80;100889.00;;;;5088844;28;20712;-73
2023/03/19 01:53:39;;;;;;;1.92;1.40;;;;;16.80;100894.00;;;;5088551;28;20759;-73
2023/03/19 01:56:12;;;;;;;3.25;1.60;;;;;16.70;100895.00;;;;5088309;28;20190;-73
2023/03/19 01:58:41;;;;;;;1.30;1.20;;;;;16.80;100897.00;;;;5089632;28;20202;-73
2023/03/19 02:01:08;;;;;;;2.40;1.27;;;;;16.80;100898.00;;;;5088082;28;20191;-73
2023/03/19 02:03:38;;;;;;;2.95;1.50;;;;;16.80;100899.00;;;;5088719;28;20284;-73
2023/03/19 02:06:06;;;;;;;2.22;1.67;;;;;16.80;100897.00;;;;5089157;28;20187;-73
2023/03/19 02:08:35;;;;;;;1.92;1.55;;;;;16.80;100899.00;;;;5089918;28;20219;-73
2023/03/19 02:11:02;;;;;;;2.53;1.42;;;;;16.80;100900.00;;;;5089279;28;20677;-73
2023/03/19 02:13:30;;;;;;;3.47;1.83;;;;;16.80;100897.00;;;;5085675;28;20703;-73
2023/03/19 02:15:57;;;;;;;2.67;1.70;;;;;16.80;100893.00;;;;5085800;28;20190;-73
2023/03/19 02:18:26;;;;;;;1.65;1.55;;;;;16.70;100897.00;;;;5077563;28;20202;-73
2023/03/19 02:21:03;;;;;;;1.95;1.23;;;;;16.70;100904.00;;;;5087823;28;20201;-73
2023/03/19 02:23:37;;;;;;;1.95;1.60;;;;;16.70;100907.00;;;;5089383;28;20198;-73
2023/03/19 02:26:08;;;;;;;3.25;1.48;;;;;16.70;100899.00;;;;5086439;28;20193;-73
2023/03/19 02:28:39;;;;;;;1.70;1.60;;;;;16.60;100895.00;;;;5088825;28;20272;-73
2023/03/19 02:31:07;;;;;;;2.20;1.40;;;;;16.60;100902.00;;;;5088862;28;20928;-73
2023/03/19 02:33:34;;;;;;;2.50;1.50;;;;;16.60;100897.00;;;;5081554;28;20581;-73
2023/03/19 02:36:03;;;;;;;3.15;1.73;;;;;16.60;100898.00;;;;5081444;28;20419;-73
2023/03/19 02:38:32;;;;;;;3.00;1.70;;;;;16.60;100906.00;;;;5076309;28;20668;-73
2023/03/19 02:41:03;;;;;;;2.25;1.48;;;;;16.60;100900.00;;;;5089060;28;20203;-73
2023/03/19 02:43:33;;;;;;;2.00;1.60;;;;;16.60;100905.00;;;;5087079;28;20194;-73
2023/03/19 02:46:01;;;;;;;2.15;1.73;;;;;16.60;100911.00;;;;5087778;28;20278;-73
2023/03/19 02:48:28;;;;;;;2.28;1.73;;;;;16.60;100906.00;;;;5088388;28;20210;-73
2023/03/19 02:50:56;;;;;;;2.22;1.77;;;;;16.60;100907.00;;;;5077661;28;20595;-73
2023/03/19 02:53:23;;;;;;;2.05;1.73;;;;;16.60;100909.00;;;;5076749;28;20222;-73
2023/03/19 02:55:51;;;;;;;2.22;2.00;;;;;16.60;100912.00;;;;5087078;28;20602;-73
2023/03/19 02:58:18;;;;;;;2.85;2.40;;;;;16.60;100919.00;;;;5088818;28;20187;-73
2023/03/19 03:00:47;;;;;;;2.50;1.80;;;;;16.60;100916.00;;;;5087211;28;20195;-74
2023/03/19 03:03:14;;;;;;;2.97;1.75;;;;;16.60;100915.00;;;;5087979;28;20301;-73
2023/03/19 03:05:42;;;;;;;2.33;1.98;;;;;16.60;100912.00;;;;5085065;28;20730;-73
2023/03/19 03:08:09;;;;;;;1.98;1.75;;;;;16.60;100909.00;;;;5079860;28;20202;-73
2023/03/19 03:10:37;;;;;;;3.72;2.30;;;;;16.70;100906.00;;;;5087603;28;20210;-73
2023/03/19 03:13:04;;;;;;;2.67;2.17;;;;;16.70;100909.00;;;;5084892;28;20214;-73
2023/03/19 03:15:31;;;;;;;2.65;2.08;;;;;16.70;100905.00;;;;5085669;28;20202;-73
2023/03/19 03:18:00;;;;;;;2.67;2.35;;;;;16.70;100917.00;;;;5087648;28;21053;-73
2023/03/19 03:20:28;;;;;;;3.63;2.50;;;;;16.70;100909.00;;;;5087849;28;20232;-73
2023/03/19 03:22:55;;;;;;;3.35;2.70;;;;;16.70;100907.00;;;;5086141;28;20194;-73
2023/03/19 03:25:22;;;;;;;2.58;2.35;;;;;16.70;100916.00;;;;5078986;28;20209;-73
2023/03/19 03:27:49;;;;;;;3.00;2.38;;;;;16.70;100913.00;;;;5088501;28;20206;-73
2023/03/19 03:30:17;;;;;;;4.00;2.88;;;;;16.70;100917.00;;;;5068301;28;20217;-74
2023/03/19 03:32:44;;;;;;;3.58;2.42;;;;;16.60;100916.00;;;;5068778;28;20202;-73
2023/03/19 03:35:20;;;;;;;2.58;2.28;;;;;16.60;100916.00;;;;5065344;28;20199;-73
2023/03/19 03:37:48;;;;;;;2.58;2.38;;;;;16.60;100921.00;;;;5067352;28;20257;-73
2023/03/19 03:40:16;;;;;;;4.50;2.50;;;;;16.60;100921.00;;;;5068145;28;20194;-73
2023/03/19 03:42:43;;;;;;;6.30;2.85;;;;;16.60;100922.00;;;;5051121;28;20207;-73
2023/03/19 03:45:11;;;;;;;3.08;2.42;;;;;16.60;100920.00;;;;5064721;28;20205;-73
2023/03/19 03:47:39;;;;;;;3.00;2.65;;;;;16.60;100935.00;;;;5067618;28;20208;-73
2023/03/19 03:50:09;;;;;;;2.55;2.10;;;;;16.60;100925.00;;;;5066677;28;20705;-73
2023/03/19 03:52:38;;;;;;;2.83;2.47;;;;;16.50;100921.00;;;;5067268;28;20714;-73
2023/03/19 03:55:06;;;;;;;3.17;2.85;;;;;16.50;100918.00;;;;5066467;28;20234;-73
2023/03/19 03:57:34;;;;;;;3.28;2.58;;;;;16.50;100922.00;;;;5065455;28;20291;-73
2023/03/19 04:00:01;;;;;;;4.10;2.67;;;;;16.40;100926.00;;;;5061611;28;20206;-73
2023/03/19 04:02:28;;;;;;;4.38;2.70;;;;;16.40;100924.00;;;;5067313;28;20218;-74
2023/03/19 04:04:56;;;;;;;3.60;3.03;;;;;16.30;100920.00;;;;5067875;28;20194;-73
2023/03/19 04:07:23;;;;;;;3.53;2.92;;;;;16.30;100920.00;;;;5067585;28;20206;-73
2023/03/19 04:09:52;;;;;;;4.57;2.67;;;;;16.20;100918.00;;;;5064589;28;20203;-73
2023/03/19 04:12:19;;;;;;;3.63;3.08;;;;;16.20;100922.00;;;;5068595;28;20202;-73
2023/03/19 04:14:47;;;;;;;4.50;3.72;;;;;16.10;100917.00;;;;5066622;28;20587;-73
2023/03/19 04:17:14;;;;;;;4.85;3.85;;;;;16.10;100913.00;;;;5064008;28;20202;-73
2023/03/19 04:19:42;;;;;;;5.47;3.47;;;;;16.10;100917.00;;;;5068983;28;20225;-73
2023/03/19 04:22:10;;;;;;;4.28;3.35;;;;;16.00;100911.00;;;;5069508;28;20199;-73
2023/03/19 04:24:37;;;;;;;4.05;3.33;;;;;16.00;100921.00;;;;5069016;28;20684;-73
2023/03/19 04:27:07;;;;;;;4.57;3.72;;;;;15.90;100925.00;;;;5067482;28;20195;-73
2023/03/19 04:29:34;;;;;;;4.80;3.40;;;;;15.90;100926.00;;;;5069321;28;20226;-73
2023/03/19 04:32:02;;;;;;;3.75;3.30;;;;;15.80;100927.00;;;;5066139;28;20209;-73
2023/03/19 04:34:29;;;;;;;4.25;3.10;;;;;15.80;100923.00;;;;5061977;28;20221;-74
2023/03/19 04:36:57;;;;;;;4.55;3.13;;;;;15.70;100922.00;;;;5070486;28;20199;-74
2023/03/19 04:39:25;;;;;;;4.03;3.03;;;;;15.70;100927.00;;;;5070689;28;20232;-74
2023/03/19 04:41:52;;;;;;;3.47;3.13;;;;;15.70;100927.00;;;;5069783;28;20203;-74
2023/03/19 04:44:22;;;;;;;4.00;3.33;;;;;15.60;100927.00;;;;5069434;28;20222;-74
2023/03/19 04:46:49;;;;;;;4.05;3.45;;;;;15.60;100923.00;;;;5069084;28;20203;-74
2023/03/19 04:49:18;;;;;;;4.13;3.22;;;;;15.50;100926.00;;;;5066701;28;20294;-73
2023/03/19 04:51:45;;;;;;;3.50;3.20;;;;;15.50;100917.00;;;;5051647;28;20196;-74
2023/03/19 04:54:13;;;;;;;4.57;3.75;;;;;15.40;100917.00;;;;5062215;28;20569;-73
2023/03/19 04:56:40;;;;;;;3.97;3.60;;;;;15.40;100910.00;;;;5068904;28;20272;-73
2023/03/19 04:59:09;;;;;;;5.22;3.78;;;;;15.30;100924.00;;;;5069611;28;20214;-73
2023/03/19 05:01:37;;;;;;;3.92;3.20;;;;;15.30;100934.00;;;;5070858;28;20195;-74
2023/03/19 05:04:05;;;;;;;5.45;3.20;;;;;15.20;100937.00;;;;5070822;28;20203;-74
2023/03/19 05:06:33;;;;;;;3.88;3.47;;;;;15.20;100941.00;;;;5064171;28;20214;-74
2023/03/19 05:09:00;;;;;;;5.32;3.65;;;;;15.10;100944.00;;;;5071141;28;20203;-74
2023/03/19 05:11:28;;;;;;;4.95;3.58;;;;;15.10;100957.00;;;;5069934;28;20199;-74
2023/03/19 05:13:55;;;;;;;4.07;3.63;;;;;15.00;100954.00;;;;5069081;28;20229;-74
2023/03/19 05:16:22;;;;;;;4.57;3.88;;;;;15.00;100963.00;;;;5068656;28;20203;-74
2023/03/19 05:18:51;;;;;;;4.82;3.10;;;;;15.00;100954.00;;;;5069449;28;20214;-73
2023/03/19 05:21:18;;;;;;;5.00;3.97;;;;;14.90;100959.00;;;;5068320;28;20195;-74
2023/03/19 05:23:51;;;;;;;4.63;3.70;;;;;14.90;100967.00;;;;5057675;28;20196;-73
2023/03/19 05:26:18;;;;;;;4.28;3.80;;;;;14.80;100970.00;;;;5061932;28;20623;-74
2023/03/19 05:28:45;;;;;;;4.00;3.60;;;;;14.80;100959.00;;;;5069645;28;20243;-73
2023/03/19 05:31:13;;;;;;;4.32;3.58;;;;;14.80;100966.00;;;;5068636;28;20219;-74
2023/03/19 05:33:40;;;;;;;4.75;4.20;;;;;14.70;100973.00;;;;5068802;28;20223;-73
2023/03/19 05:36:12;;;;;;;4.57;3.95;;;;;14.70;100966.00;;;;5068658;28;20214;-74
2023/03/19 05:38:39;;;;;;;6.40;5.03;;;;;14.70;100967.00;;;;5069100;28;20301;-73
2023/03/19 05:41:07;;;;;;;5.20;4.20;;;;;14.60;100975.00;;;;5062810;28;20203;-73
2023/03/19 05:43:35;;;;;;;6.65;3.33;;;;;14.60;100985.00;;;;5067381;28;20214;-74
2023/03/19 05:46:02;;;;;;;5.43;4.35;;;;;14.60;100981.00;;;;5066630;28;20199;-74
2023/03/19 05:48:29;;;;;;;6.57;4.25;;;;;14.60;100983.00;;;;5060902;28;20192;-74
2023/03/19 05:50:58;;;;;;;6.25;4.30;;;;;14.60;100985.00;;;;5061097;28;20200;-73
2023/03/19 05:53:26;;;;;;;6.00;3.72;;;;;14.50;100984.00;;;;5063309;28;20195;-74
2023/03/19 05:55:54;;;;;;;4.70;3.63;;;;;14.50;100989.00;;;;5057633;28;20206;-73
2023/03/19 05:58:21;;;;;;;6.35;3.97;;;;;14.50;100998.00;;;;5060861;28;20210;-73
2023/03/19 06:00:49;;;;;;;4.95;3.92;;;;;14.40;100999.00;;;;5061326;28;20199;-74
2023/03/19 06:03:17;;;;;;;4.40;3.53;;;;;14.40;101007.00;;;;5057235;28;20881;-74
2023/03/19 06:05:44;;;;;;;5.30;4.22;;;;;14.40;101004.00;;;;5059321;28;20206;-74
2023/03/19 06:08:11;;;;;;;4.13;3.72;;;;;14.40;101004.00;;;;5060831;28;20199;-75
2023/03/19 06:10:40;;;;;;;5.82;4.32;;;;;14.30;101003.00;;;;5060572;28;20207;-73
2023/03/19 06:13:07;;;;;;;4.38;3.97;;;;;14.40;101004.00;;;;5060558;28;20282;-75
2023/03/19 06:15:35;;;;;;;7.28;4.78;;;;;14.40;101012.00;;;;5056738;28;20242;-73
2023/03/19 06:18:02;;;;;;;5.28;4.10;;;;;14.40;101007.00;;;;5055882;28;20203;-72
2023/03/19 06:20:30;;;;;;;4.85;4.25;;;;;14.40;101012.00;;;;5059536;28;20580;-72
2023/03/19 06:22:58;;;;;;;4.93;4.38;;;;;14.40;101014.00;;;;5059125;28;20691;-72
2023/03/19 06:25:27;;;;;;;5.88;5.13;;;;;14.40;101021.00;;;;5056670;28;20487;-72
2023/03/19 06:27:55;;;;;;;6.03;4.22;;;;;14.40;101016.00;;;;5060982;28;20203;-73
2023/03/19 06:30:23;;;;;;;6.85;4.25;;;;;14.40;101022.00;;;;5082571;28;20620;-72
2023/03/19 06:32:50;;;;;;;5.65;4.32;;;;;14.40;101029.00;;;;5077346;28;20224;-73
2023/03/19 06:35:18;;;;;;;4.30;3.90;;;;;14.40;101026.00;;;;5078776;28;20629;-72
2023/03/19 06:37:45;;;;;;;5.63;4.32;;;;;14.40;101031.00;;;;5076791;28;20220;-72
2023/03/19 06:40:13;;;;;;;7.15;4.80;;;;;14.40;101028.00;;;;5079150;28;20195;-72
2023/03/19 06:42:41;;;;;;;6.72;4.50;;;;;14.40;101040.00;;;;5080259;28;20202;-73
2023/03/19 06:45:10;;;;;;;7.32;5.35;;;;;14.40;101044.00;;;;5079430;28;20704;-72
2023/03/19 06:47:37;;;;;;;6.03;4.95;;;;;14.50;101039.00;;;;5076291;28;20214;-73
2023/03/19 06:50:05;;;;;;;11.10;6.45;;;;;14.50;101041.00;;;;5077588;28;20199;-72
2023/03/19 06:52:33;;;;;;;7.95;5.88;;;;;14.60;101046.00;;;;5078955;28;20202;-72
2023/03/19 06:55:00;;;;;;;8.18;5.50;;;;;14.60;101041.00;;;;5076803;28;20222;-72
2023/03/19 06:57:28;;;;;;;6.82;5.82;;;;;14.70;101047.00;;;;5075380;28;20748;-73
2023/03/19 06:59:55;;;;;;;6.13;4.72;;;;;14.70;101053.00;;;;5077953;28;20668;-73
2023/03/19 07:02:25;;;;;;;5.88;4.53;;;;;14.70;101052.00;;;;5079456;28;20198;-73
2023/03/19 07:04:52;;;;;;;10.30;5.63;;;;;14.80;101055.00;;;;5077011;28;20596;-76
2023/03/19 07:07:20;;;;;;;7.88;5.00;;;;;14.90;101058.00;;;;5080438;28;20209;-74
2023/03/19 07:09:47;;;;;;;5.65;5.05;;;;;14.90;101059.00;;;;5074846;28;20221;-73
2023/03/19 07:12:14;;;;;;;6.20;5.07;;;;;15.00;101068.00;;;;5072953;28;20296;-73
2023/03/19 07:14:42;;;;;;;6.63;4.88;;;;;15.00;101068.00;;;;5073693;28;20214;-73
2023/03/19 07:17:09;;;;;;;5.90;4.85;;;;;15.10;101075.00;;;;5079176;28;20199;-73
2023/03/19 07:19:38;;;;;;;5.32;4.40;;;;;15.10;101074.00;;;;5078712;28;20284;-73
2023/03/19 07:22:05;;;;;;;6.82;5.25;;;;;15.20;101075.00;;;;5074674;28;20202;-73
2023/03/19 07:24:32;;;;;;;6.57;5.15;;;;;15.30;101076.00;;;;5078120;28;20202;-76
2023/03/19 07:27:01;;;;;;;7.03;5.60;;;;;15.40;101081.00;;;;5074777;28;20197;-73
2023/03/19 07:29:28;;;;;;;6.88;5.20;;;;;15.40;101088.00;;;;5079552;28;20224;-73
2023/03/19 07:31:55;;;;;;;6.78;5.93;;;;;15.40;101100.00;;;;5084781;28;20313;-73
2023/03/19 07:34:23;;;;;;;8.43;6.03;;;;;15.50;101096.00;;;;5083205;28;20228;-73
2023/03/19 07:36:52;;;;;;;8.27;6.68;;;;;15.50;101104.00;;;;5079098;28;20209;-73
2023/03/19 07:39:20;;;;;;;12.93;8.13;;;;;15.60;101103.00;;;;5080716;28;20288;-73
2023/03/19 07:41:48;;;;;;;10.40;8.15;;;;;15.60;101108.00;;;;5067322;28;20191;-73
2023/03/19 07:44:16;;;;;;;11.43;7.68;;;;;15.60;101112.00;;;;5078372;28;20275;-73
2023/03/19 07:46:44;;;;;;;12.18;9.10;;;;;15.60;101109.00;;;;5087898;28;20194;-73
2023/03/19 07:49:11;;;;;;;12.52;8.55;;;;;15.60;101109.00;;;;5090773;28;20190;-73
2023/03/19 07:51:38;;;;;;;11.23;7.22;;;;;15.60;101112.00;;;;5091389;28;20564;-74
2023/03/19 07:54:07;;;;;;;12.80;8.60;;;;;15.60;101120.00;;;;5089628;28;20202;-73
2023/03/19 07:56:35;;;;;;;12.38;8.95;;;;;15.60;101124.00;;;;5090616;28;20194;-73
2023/03/19 07:59:02;;;;;;;14.00;8.25;;;;;15.70;101118.00;;;;5088406;28;20190;-73
2023/03/19 08:01:29;;;;;;;14.50;9.13;;;;;15.70;101124.00;;;;5091301;28;20584;-73
2023/03/19 08:03:56;;;;;;;12.55;8.00;;;;;15.70;101126.00;;;;5089741;28;20199;-73
2023/03/19 08:06:24;;;;;;;13.10;8.38;;;;;15.70;101127.00;;;;5088709;28;20194;-73
2023/03/19 08:08:51;;;;;;;12.65;9.20;;;;;15.80;101128.00;;;;5085499;28;20198;-74
2023/03/19 08:11:20;;;;;;;13.15;8.60;;;;;15.80;101129.00;;;;5086481;28;20202;-73
2023/03/19 08:13:47;;;;;;;15.65;9.60;;;;;15.90;101130.00;;;;5082908;28;20191;-74
2023/03/19 08:16:14;;;;;;;13.55;9.07;;;;;16.00;101133.00;;;;5088033;28;20719;-74
2023/03/19 08:18:42;;;;;;;14.07;10.10;;;;;16.00;101133.00;;;;5090421;28;20210;-74
2023/03/19 08:21:09;;;;;;;14.65;9.95;;;;;16.10;101137.00;;;;5091295;28;20225;-74
2023/03/19 08:23:36;;;;;;;14.23;9.82;;;;;16.10;101145.00;;;;5089707;28;20198;-75
2023/03/19 08:26:04;;;;;;;16.40;10.43;;;;;16.10;101144.00;;;;5083543;28;20190;-74
2023/03/19 08:28:33;;;;;;;15.70;10.45;;;;;16.10;101143.00;;;;5086493;28;20230;-74
2023/03/19 08:31:07;;;;;;;15.43;9.75;;;;;16.20;101149.00;;;;5080769;28;20707;-74
2023/03/19 08:33:35;;;;;;;16.73;11.10;;;;;16.30;101150.00;;;;5076896;28;20193;-74
2023/03/19 08:36:07;;;;;;;13.90;10.10;;;;;16.30;101155.00;;;;5088741;28;20222;-74
2023/03/19 08:38:35;;;;;;;16.73;11.23;;;;;16.30;101149.00;;;;5086705;28;20206;-74
2023/03/19 08:41:04;;;;;;;14.52;10.10;;;;;16.30;101152.00;;;;5087977;28;20207;-74
2023/03/19 08:43:35;;;;;;;13.32;9.57;;;;;16.40;101156.00;;;;5091055;28;20674;-74
2023/03/19 08:46:03;;;;;;;14.10;9.98;;;;;16.50;101163.00;;;;5089660;28;20852;-75
2023/03/19 08:48:30;;;;;;;14.98;10.88;;;;;16.50;101163.00;;;;5082159;28;20935;-75
2023/03/19 08:51:01;;;;;;;13.82;9.48;;;;;16.50;101162.00;;;;5088815;28;20656;-74
2023/03/19 08:53:29;;;;;;;17.33;10.27;;;;;16.60;101162.00;;;;5087376;28;20246;-74
2023/03/19 08:55:59;;;;;;;16.27;10.43;;;;;16.70;101163.00;;;;5087270;28;20233;-73
2023/03/19 08:58:27;;;;;;;15.45;10.20;;;;;16.70;101174.00;;;;5085999;28;20672;-74
2023/03/19 09:01:01;;;;;;;15.77;11.15;;;;;16.70;101173.00;;;;5086756;28;20206;-74
2023/03/19 09:03:29;;;;;;;15.85;10.60;;;;;16.80;101178.00;;;;5084461;28;20284;-73
2023/03/19 09:06:00;;;;;;;15.75;10.18;;;;;16.80;101186.00;;;;5079233;28;20194;-73
2023/03/19 09:08:27;;;;;;;15.50;11.05;;;;;16.90;101183.00;;;;5089775;28;20201;-74
2023/03/19 09:10:55;;;;;;;14.45;10.10;;;;;16.90;101193.00;;;;5088376;28;20263;-74
2023/03/19 09:13:23;;;;;;;15.85;10.93;;;;;16.90;101189.00;;;;5089156;28;20206;-74
2023/03/19 09:15:50;;;;;;;15.95;11.82;;;;;16.90;101193.00;;;;5088757;28;20232;-74
2023/03/19 09:18:22;;;;;;;16.08;10.55;;;;;16.90;101186.00;;;;5090450;28;20202;-74
2023/03/19 09:20:50;;;;;;;15.80;10.75;;;;;17.00;101190.00;;;;5087635;28;20209;-74
2023/03/19 09:23:18;;;;;;;18.40;11.55;;;;;17.00;101184.00;;;;5082076;28;20213;-74
2023/03/19 09:25:45;;;;;;;13.77;10.80;;;;;17.10;101191.00;;;;5088140;28;20202;-74
2023/03/19 09:28:13;;;;;;;16.38;10.82;;;;;17.10;101192.00;;;;5089292;28;20226;-74
2023/03/19 09:30:40;;;;;;;17.52;10.90;;;;;17.20;101202.00;;;;5087136;28;20573;-74
2023/03/19 09:33:07;;;;;;;14.75;10.82;;;;;17.20;101199.00;;;;5087315;28;20203;-73
2023/03/19 09:35:38;;;;;;;13.27;9.30;;;;;17.20;101203.00;;;;5085493;28;20276;-73
2023/03/19 09:38:06;;;;;;;15.05;11.30;;;;;17.20;101213.00;;;;5084690;28;20202;-73
2023/03/19 09:40:37;;;;;;;14.82;9.85;;;;;17.20;101214.00;;;;5086754;28;20201;-74
2023/03/19 09:43:34;;;;;;;15.38;10.80;;;;;17.10;101225.00;;;;5086132;28;20214;-74
2023/03/19 09:46:10;;;;;;;17.55;10.95;;;;;17.20;101220.00;;;;5080776;28;20194;-74
2023/03/19 09:48:43;;;;;;;13.45;9.65;;;;;17.20;101225.00;;;;5086331;28;20190;-74
2023/03/19 09:51:18;;;;;;;14.68;10.88;;;;;17.20;101229.00;;;;5086966;28;20202;-74
2023/03/19 09:53:50;;;;;;;17.02;10.65;;;;;17.20;101231.00;;;;5084667;28;20964;-74
2023/03/19 09:56:18;;;;;;;16.00;10.50;;;;;17.20;101228.00;;;;5086860;28;20317;-75
2023/03/19 09:58:46;;;;;;;13.90;10.48;;;;;17.20;101231.00;;;;5087932;28;20317;-74
2023/03/19 10:01:24;;;;;;;15.13;10.10;;;;;17.20;101234.00;;;;5089250;28;20207;-74
2023/03/19 10:04:11;;;;;;;14.68;10.00;;;;;17.20;101236.00;;;;5088378;28;20198;-74
2023/03/19 10:06:40;;;;;;;14.45;9.15;;;;;17.20;101240.00;;;;5084791;28;20195;-75
2023/03/19 10:09:30;;;;;;;16.50;10.10;;;;;17.20;101241.00;;;;5086627;28;20259;-74
2023/03/19 10:12:10;;;;;;;16.92;10.90;;;;;17.30;101246.00;;;;5083322;28;20612;-75
2023/03/19 10:14:56;;;;;;;14.27;10.80;;;;;17.30;101254.00;;;;5086674;28;20586;-75
2023/03/19 10:17:28;;;;;;;15.25;10.25;;;;;17.30;101248.00;;;;5087540;28;20683;-75
2023/03/19 10:20:02;;;;;;;17.08;11.60;;;;;17.30;101253.00;;;;5089135;28;20208;-74
2023/03/19 10:22:35;;;;;;;17.15;11.27;;;;;17.30;101253.00;;;;5087866;28;20666;-74
2023/03/19 10:25:04;;;;;;;14.85;10.38;;;;;17.40;101257.00;;;;5088206;28;20205;-74
2023/03/19 10:27:32;;;;;;;14.63;10.02;;;;;17.40;101257.00;;;;5086221;28;20202;-74
2023/03/19 10:30:00;;;;;;;14.73;11.02;;;;;17.50;101252.00;;;;5085990;28;20234;-75
2023/03/19 10:32:38;;;;;;;20.48;12.65;;;;;17.50;101255.00;;;;5085972;28;20199;-74
2023/03/19 10:35:12;;;;;;;19.13;11.82;;;;;17.50;101261.00;;;;5084339;28;20198;-74
2023/03/19 10:37:40;;;;;;;17.92;11.90;;;;;17.60;101255.00;;;;5083749;28;20199;-74
2023/03/19 10:40:20;;;;;;;20.63;12.40;;;;;17.50;101258.00;;;;5087044;28;20198;-74
2023/03/19 10:43:01;;;;;;;23.33;13.30;;;;;17.60;101263.00;;;;5081311;28;20193;-75
2023/03/19 10:45:31;;;;;;;17.88;11.63;;;;;17.60;101268.00;;;;5077188;28;20655;-74
2023/03/19 10:48:00;;;;;;;17.38;12.13;;;;;17.60;101269.00;;;;5072926;28;20194;-74
2023/03/19 10:50:32;;;;;;;16.98;12.23;;;;;17.60;101271.00;;;;5077403;28;20199;-74
2023/03/19 10:53:07;;;;;;;16.83;10.93;;;;;17.60;101276.00;;;;5079057;28;20399;-75
2023/03/19 10:55:34;;;;;;;15.93;11.20;;;;;17.70;101279.00;;;;5086023;28;20309;-74
2023/03/19 10:58:05;;;;;;;16.45;11.68;;;;;17.70;101286.00;;;;5084182;28;20213;-74
2023/03/19 11:00:34;;;;;;;18.60;11.27;;;;;17.70;101295.00;;;;5088347;28;20193;-74
2023/03/19 11:03:04;;;;;;;16.60;10.82;;;;;17.70;101296.00;;;;5084223;28;20771;-75
2023/03/19 11:05:33;;;;;;;14.55;10.40;;;;;17.70;101298.00;;;;5087656;28;20217;-74
2023/03/19 11:08:04;;;;;;;15.05;10.32;;;;;17.70;101296.00;;;;5084050;28;20202;-74
2023/03/19 11:10:34;;;;;;;17.23;10.27;;;;;17.70;101307.00;;;;5087872;28;20194;-74
2023/03/19 11:13:06;;;;;;;17.20;10.82;;;;;17.70;101308.00;;;;5088819;28;20244;-75
2023/03/19 11:15:36;;;;;;;15.60;9.88;;;;;17.60;101320.00;;;;5084936;28;20302;-74
2023/03/19 11:18:15;;;;;;;14.48;9.45;;;;;17.60;101316.00;;;;5078883;28;20198;-74
2023/03/19 11:20:42;;;;;;;15.02;8.82;;;;;17.60;101309.00;;;;5083143;28;20259;-74
2023/03/19 11:23:17;;;;;;;12.70;8.88;;;;;17.50;101316.00;;;;5080469;28;20199;-74
2023/03/19 11:25:51;;;;;;;11.38;8.23;;;;;17.50;101316.00;;;;5079749;28;20198;-74
2023/03/19 11:28:21;;;;;;;11.02;8.30;;;;;17.50;101306.00;;;;5080931;28;20325;-74
2023/03/19 11:30:59;;;;;;;13.75;8.07;;;;;17.50;101307.00;;;;5080500;28;20217;-74
2023/03/19 11:33:40;;;;;;;10.48;8.00;;;;;17.40;101307.00;;;;5082089;28;20208;-74
2023/03/19 11:36:13;;;;;;;14.70;8.48;;;;;17.50;101311.00;;;;5082455;28;20722;-74
2023/03/19 11:38:57;;;;;;;11.75;7.57;;;;;17.40;101309.00;;;;5078757;28;20199;-74
2023/03/19 11:41:37;;;;;;;10.90;8.15;;;;;17.40;101313.00;;;;5073896;28;20277;-74
2023/03/19 11:44:08;;;;;;;10.80;7.50;;;;;17.50;101306.00;;;;5083141;28;20198;-74
2023/03/19 11:46:43;;;;;;;13.18;8.38;;;;;17.40;101306.00;;;;5086877;28;20682;-75
2023/03/19 11:49:41;;;;;;;12.43;7.53;;;;;17.40;101305.00;;;;5083882;28;20182;-74
2023/03/19 11:52:15;;;;;;;10.82;7.80;;;;;17.50;101306.00;;;;5086753;28;20201;-74
2023/03/19 11:54:57;;;;;;;12.60;7.70;;;;;17.50;101308.00;;;;5082574;28;20194;-74
2023/03/19 11:57:34;;;;;;;10.60;7.70;;;;;17.50;101308.00;;;;5082247;28;20762;-74
2023/03/19 12:00:18;;;;;;;14.68;8.50;;;;;17.50;101308.00;;;;5083948;28;20193;-74
2023/03/19 12:03:24;;;;;;;11.38;8.10;;;;;17.50;101307.00;;;;5085718;28;20194;-75
2023/03/19 12:05:58;;;;;;;9.30;7.05;;;;;17.60;101313.00;;;;5082670;28;20289;-74
2023/03/19 12:08:37;;;;;;;12.10;7.47;;;;;17.70;101315.00;;;;5083550;28;20197;-74
2023/03/19 12:11:16;;;;;;;11.18;7.32;;;;;17.70;101313.00;;;;5079306;28;20195;-75
2023/03/19 12:13:57;;;;;;;13.52;7.68;;;;;17.80;101319.00;;;;5084619;28;20202;-74